Keesler Air Force Base
KBIX : rendu visible

Aérodrome :











RETROUVEZ-NOUS SUR...

 
LOGIN :

S'inscrire | Disclaimer

   EN    FR    IT 

 









Légende :    VFR   VFR Marginal   IFR   IFR Intensif   IFR Très Intensif
Visi : 
Plafond : 
>= 8 km
>= 3000ft
5 à 8 km
1000 à 3000 ft
1500m à 5 km
500 à 1000 ft
800 à 1500m
200 à 500 ft
< 800m
< 200 ft
Symboles :   Orages  Brouillard  Fortes neiges  Fortes précipitations  Vent > 20 kt






- Altitude de l'aérodrome : 33 ft


KBIX - Keesler Air Force Base

DERNIER METAR :
  • 201056Z AUTO 00000KT 10SM CLR 08/07 A3011 RMK AO2 SLP199 T00770069

METARs EXPIRÉS :
  • 200956Z AUTO 00000KT 5SM BR CLR 09/08 A3011 RMK AO2 VIS 7/8 RWY03 SLP199 T00860078
  • 200856Z AUTO 00000KT 6SM BR CLR 09/08 A3010 RMK AO2 SLP196 T00900081 53011

TAF AMD TAF KBIX
Valide du 20 à 11h jusqu'au 21 à 16h UTC


201135Z 2011/2116 VRB06KT 6000 BR SKC QNH3009INS
TEMPO 2011/2015 1600 BR
BECMG 2014/2015 04006KT 9999 NSW FEW070 QNH3014INS TX21/2020Z TN08/2012Z



MET'MAP, la Météo Aéronautique d'un coup d'oeil ! - Copyright ORBIFLY Décembre 2007 - Disclaimer

ORBIFLY MET'MAP TEAM :

Programmation & Développement : Alexandra Zaïnal
Conception & Développement : Baudouin d'Aumeries
Co-Programmation & Développement : Marc-Olivier Méhu
Soutien technique & logistique : Manuel Goepfert

Contact : metmap@orbifly.com




SOURCES & CREDITS :

   NOAA       Earth
Advisory